T/t Zenji — ZCXH2 — position and weather

sailwx.info

Track history (hours):
 
Tides and Currents Weather Stations Pressure Air Temp Water Temp Dewpoint Dewpoint Depression Visibility Wind Speed Wind Dir Waves Ship Positions

T/t Zenji

Last reported at 2015-Feb-21 13:20 UTC. Time now 2015-Mar-01 06:53 UTC.
Position N 18°18' W 064°54'.

Length 13 m.

Type: Pleasure craft. MMSI: 235007190.

Date/timePositionNaut miles runAvg speedWind from/ knotsBaromVisibWave heightAir tempDewpointWater temp
2015-Feb-21 13:20N 18°18' W 064°54'6 7.4
2015-Feb-21 12:33N 18°20' W 064°49'6 5.9
2015-Feb-21 11:33N 18°23' W 064°43'0 0.0
2015-Feb-21 10:33N 18°23' W 064°43'0 0.0
2015-Feb-21 09:33N 18°23' W 064°43'0 0.0
2015-Feb-21 08:33N 18°23' W 064°43'0 0.0
2015-Feb-21 07:33N 18°23' W 064°43'0 0.0
2015-Feb-21 06:33N 18°23' W 064°43'0 0.1
2015-Feb-21 05:33N 18°23' W 064°43'0 0.0
2015-Feb-21 04:33N 18°23' W 064°43'0 0.0
2015-Feb-21 03:33N 18°23' W 064°43'0 0.0
2015-Feb-21 02:33N 18°23' W 064°43'0 0.0
2015-Feb-21 01:33N 18°23' W 064°43'0 0.0
2015-Feb-21 00:33N 18°23' W 064°43'0 0.0
2015-Feb-20 23:33N 18°23' W 064°43'0 0.0
2015-Feb-20 22:34N 18°23' W 064°43'0 0.0
2015-Feb-20 21:33N 18°23' W 064°43'0 0.0
2015-Feb-20 20:33N 18°23' W 064°43'0 0.0
2015-Feb-20 19:33N 18°23' W 064°43'4 3.9
2015-Feb-20 18:32N 18°22' W 064°39'4 0.3
2015-Feb-20 08:13N 18°21' W 064°35'0 0.0
2015-Feb-19 17:08N 18°21' W 064°35'1 1.9
2015-Feb-19 16:21N 18°21' W 064°36'4 4.8
2015-Feb-19 15:27N 18°22' W 064°41'6 6.1
2015-Feb-19 14:33N 18°27' W 064°43'0 0.0
2015-Feb-19 13:33N 18°27' W 064°43'0 0.0
2015-Feb-19 12:33N 18°27' W 064°43'0 0.0
2015-Feb-19 11:33N 18°27' W 064°43'0 0.0
2015-Feb-19 10:33N 18°27' W 064°43'0 0.0
2015-Feb-19 09:33N 18°27' W 064°43'0 0.0
2015-Feb-19 08:33N 18°27' W 064°43'0 0.0
2015-Feb-19 07:32N 18°27' W 064°43'0 0.0
2015-Feb-19 06:33N 18°27' W 064°43'0 0.0
2015-Feb-19 05:33N 18°27' W 064°43'0 0.0
2015-Feb-19 04:31N 18°27' W 064°43'0 0.0
2015-Feb-19 03:32N 18°27' W 064°43'0 0.0
2015-Feb-19 02:33N 18°27' W 064°43'0 0.0
2015-Feb-19 01:33N 18°27' W 064°43'0 0.0
2015-Feb-19 00:33N 18°27' W 064°43'0 0.0
2015-Feb-18 23:33N 18°27' W 064°43'0 0.0
2015-Feb-18 22:33N 18°27' W 064°43'0 0.0
2015-Feb-18 21:33N 18°27' W 064°43'0 0.0
2015-Feb-18 20:33N 18°27' W 064°43'0 0.0
2015-Feb-18 19:33N 18°27' W 064°43'2 1.9
2015-Feb-18 18:33N 18°28' W 064°41'13 9.5
2015-Feb-18 17:11N 18°37' W 064°31'10 0.2
2015-Feb-16 16:20N 18°31' W 064°23'810.5
2015-Feb-16 15:32N 18°26' W 064°30'10 1.1
2015-Feb-16 06:24N 18°19' W 064°37'1 0.1
2015-Feb-15 15:26N 18°20' W 064°38'5 6.0
2015-Feb-15 14:33N 18°23' W 064°43'0 0.0
2015-Feb-15 13:33N 18°23' W 064°43'0 0.0
2015-Feb-15 12:33N 18°23' W 064°43'3 2.6
2015-Feb-15 11:33N 18°22' W 064°45'0 0.0
2015-Feb-15 10:33N 18°22' W 064°45'0 0.0
2015-Feb-15 09:33N 18°22' W 064°45'0 0.0
2015-Feb-15 08:33N 18°22' W 064°45'0 0.0
2015-Feb-15 07:33N 18°22' W 064°45'0 0.0
2015-Feb-15 06:33N 18°22' W 064°45'0 0.0
2015-Feb-15 05:33N 18°22' W 064°45'0 0.0
2015-Feb-15 04:33N 18°22' W 064°45'0 0.0
2015-Feb-15 03:33N 18°22' W 064°45'0 0.0
2015-Feb-15 02:33N 18°22' W 064°45'0 0.0
2015-Feb-15 01:32N 18°22' W 064°45'0 0.0
2015-Feb-15 00:33N 18°22' W 064°45'0 0.0
2015-Feb-14 23:33N 18°22' W 064°45'0 0.0
2015-Feb-14 22:33N 18°22' W 064°45'0 0.0
2015-Feb-14 21:33N 18°22' W 064°45'2 2.0
2015-Feb-14 20:33N 18°22' W 064°47'  
Track history (hours):
 
Tides and Currents Weather Stations Pressure Air Temp Water Temp Dewpoint Dewpoint Depression Visibility Wind Speed Wind Dir Waves Ship Positions

T/t Zenji

Last reported at 2015-Feb-21 13:20 UTC. Time now 2015-Mar-01 06:53 UTC.
Position N 18°18' W 064°54'.

Length 13 m.

Type: Pleasure craft. MMSI: 235007190.

Date/timePositionNaut miles runAvg speedWind from/ knotsBaromVisibWave heightAir tempDewpointWater temp
2015-Feb-21 13:20N 18°18' W 064°54'6 7.4
2015-Feb-21 12:33N 18°20' W 064°49'6 5.9
2015-Feb-21 11:33N 18°23' W 064°43'0 0.0
2015-Feb-21 10:33N 18°23' W 064°43'0 0.0
2015-Feb-21 09:33N 18°23' W 064°43'0 0.0
2015-Feb-21 08:33N 18°23' W 064°43'0 0.0
2015-Feb-21 07:33N 18°23' W 064°43'0 0.0
2015-Feb-21 06:33N 18°23' W 064°43'0 0.1
2015-Feb-21 05:33N 18°23' W 064°43'0 0.0
2015-Feb-21 04:33N 18°23' W 064°43'0 0.0
2015-Feb-21 03:33N 18°23' W 064°43'0 0.0
2015-Feb-21 02:33N 18°23' W 064°43'0 0.0
2015-Feb-21 01:33N 18°23' W 064°43'0 0.0
2015-Feb-21 00:33N 18°23' W 064°43'0 0.0
2015-Feb-20 23:33N 18°23' W 064°43'0 0.0
2015-Feb-20 22:34N 18°23' W 064°43'0 0.0
2015-Feb-20 21:33N 18°23' W 064°43'0 0.0
2015-Feb-20 20:33N 18°23' W 064°43'0 0.0
2015-Feb-20 19:33N 18°23' W 064°43'4 3.9
2015-Feb-20 18:32N 18°22' W 064°39'4 0.3
2015-Feb-20 08:13N 18°21' W 064°35'0 0.0
2015-Feb-19 17:08N 18°21' W 064°35'1 1.9
2015-Feb-19 16:21N 18°21' W 064°36'4 4.8
2015-Feb-19 15:27N 18°22' W 064°41'6 6.1
2015-Feb-19 14:33N 18°27' W 064°43'0 0.0
2015-Feb-19 13:33N 18°27' W 064°43'0 0.0
2015-Feb-19 12:33N 18°27' W 064°43'0 0.0
2015-Feb-19 11:33N 18°27' W 064°43'0 0.0
2015-Feb-19 10:33N 18°27' W 064°43'0 0.0
2015-Feb-19 09:33N 18°27' W 064°43'0 0.0
2015-Feb-19 08:33N 18°27' W 064°43'0 0.0
2015-Feb-19 07:32N 18°27' W 064°43'0 0.0
2015-Feb-19 06:33N 18°27' W 064°43'0 0.0
2015-Feb-19 05:33N 18°27' W 064°43'0 0.0
2015-Feb-19 04:31N 18°27' W 064°43'0 0.0
2015-Feb-19 03:32N 18°27' W 064°43'0 0.0
2015-Feb-19 02:33N 18°27' W 064°43'0 0.0
2015-Feb-19 01:33N 18°27' W 064°43'0 0.0
2015-Feb-19 00:33N 18°27' W 064°43'0 0.0
2015-Feb-18 23:33N 18°27' W 064°43'0 0.0
2015-Feb-18 22:33N 18°27' W 064°43'0 0.0
2015-Feb-18 21:33N 18°27' W 064°43'0 0.0
2015-Feb-18 20:33N 18°27' W 064°43'0 0.0
2015-Feb-18 19:33N 18°27' W 064°43'2 1.9
2015-Feb-18 18:33N 18°28' W 064°41'13 9.5
2015-Feb-18 17:11N 18°37' W 064°31'10 0.2
2015-Feb-16 16:20N 18°31' W 064°23'810.5
2015-Feb-16 15:32N 18°26' W 064°30'10 1.1
2015-Feb-16 06:24N 18°19' W 064°37'1 0.1
2015-Feb-15 15:26N 18°20' W 064°38'5 6.0
2015-Feb-15 14:33N 18°23' W 064°43'0 0.0
2015-Feb-15 13:33N 18°23' W 064°43'0 0.0
2015-Feb-15 12:33N 18°23' W 064°43'3 2.6
2015-Feb-15 11:33N 18°22' W 064°45'0 0.0
2015-Feb-15 10:33N 18°22' W 064°45'0 0.0
2015-Feb-15 09:33N 18°22' W 064°45'0 0.0
2015-Feb-15 08:33N 18°22' W 064°45'0 0.0
2015-Feb-15 07:33N 18°22' W 064°45'0 0.0
2015-Feb-15 06:33N 18°22' W 064°45'0 0.0
2015-Feb-15 05:33N 18°22' W 064°45'0 0.0
2015-Feb-15 04:33N 18°22' W 064°45'0 0.0
2015-Feb-15 03:33N 18°22' W 064°45'0 0.0
2015-Feb-15 02:33N 18°22' W 064°45'0 0.0
2015-Feb-15 01:32N 18°22' W 064°45'0 0.0
2015-Feb-15 00:33N 18°22' W 064°45'0 0.0
2015-Feb-14 23:33N 18°22' W 064°45'0 0.0
2015-Feb-14 22:33N 18°22' W 064°45'0 0.0
2015-Feb-14 21:33N 18°22' W 064°45'2 2.0
2015-Feb-14 20:33N 18°22' W 064°47'  

Dump ship's entire track history